createdAt,value
2023-05-05T00:01:00.176Z,95.20
2023-05-05T00:03:28.648Z,95.10
2023-05-05T00:05:57.380Z,95.20
2023-05-05T00:08:25.385Z,95.30
2023-05-05T00:10:54.289Z,95.10
2023-05-05T00:13:23.924Z,95.20
2023-05-05T00:15:53.603Z,95.20
2023-05-05T00:18:22.066Z,95.30
2023-05-05T00:20:50.119Z,95.10
2023-05-05T00:23:18.599Z,95.10
2023-05-05T00:25:46.661Z,95.00
2023-05-05T00:28:15.000Z,95.00
2023-05-05T00:30:44.600Z,95.10
2023-05-05T00:33:12.736Z,94.90
2023-05-05T00:35:40.684Z,95.40
2023-05-05T00:38:09.377Z,95.20
2023-05-05T00:40:38.093Z,96.10
2023-05-05T00:43:06.241Z,96.10
2023-05-05T00:45:34.484Z,95.90
2023-05-05T00:48:04.194Z,96.30
2023-05-05T00:50:32.863Z,95.90
2023-05-05T00:53:03.270Z,96.10
2023-05-05T00:55:31.778Z,96.00
2023-05-05T00:58:01.604Z,95.90
2023-05-05T01:00:30.190Z,95.90
2023-05-05T01:02:58.315Z,95.80
2023-05-05T01:05:33.488Z,96.30
2023-05-05T01:08:14.625Z,96.60
2023-05-05T01:10:47.010Z,96.30
2023-05-05T01:13:26.684Z,96.70
2023-05-05T01:16:02.488Z,96.80
2023-05-05T01:18:37.961Z,96.70
2023-05-05T01:21:14.500Z,96.50
2023-05-05T01:24:15.219Z,96.30
2023-05-05T01:27:01.393Z,96.10
2023-05-05T01:29:49.407Z,96.20
2023-05-05T01:32:23.059Z,96.60
2023-05-05T01:34:57.482Z,96.10
2023-05-05T01:37:30.242Z,95.80
2023-05-05T01:40:02.968Z,96.00
2023-05-05T01:42:33.547Z,96.30
2023-05-05T01:45:04.197Z,96.70
2023-05-05T01:47:33.963Z,96.60
2023-05-05T01:50:03.876Z,96.40
2023-05-05T01:52:32.620Z,96.30
2023-05-05T01:55:02.673Z,96.80
2023-05-05T01:57:31.542Z,96.60
2023-05-05T02:00:02.047Z,96.80
2023-05-05T02:02:31.612Z,96.90
2023-05-05T02:05:03.661Z,96.80
2023-05-05T02:07:33.495Z,97.10
2023-05-05T02:10:03.594Z,97.30
2023-05-05T02:12:32.276Z,97.30
2023-05-05T02:15:02.319Z,97.20
2023-05-05T02:17:30.984Z,97.30
2023-05-05T02:20:02.973Z,96.80
2023-05-05T02:22:31.661Z,96.80
2023-05-05T02:24:59.964Z,96.70
2023-05-05T02:27:29.195Z,96.80
2023-05-05T02:30:00.710Z,96.70
2023-05-05T02:32:33.124Z,96.70
2023-05-05T02:35:06.786Z,96.90
2023-05-05T02:37:36.485Z,96.80
2023-05-05T02:40:06.996Z,96.70
2023-05-05T02:42:38.310Z,96.60
2023-05-05T02:45:11.917Z,97.00
2023-05-05T02:47:39.914Z,96.80
2023-05-05T02:50:11.111Z,96.70
2023-05-05T02:52:39.527Z,96.50
2023-05-05T02:55:08.553Z,96.50
2023-05-05T02:57:42.434Z,96.50
2023-05-05T03:00:17.008Z,96.30
2023-05-05T03:02:51.033Z,96.30
2023-05-05T03:05:24.105Z,96.30
2023-05-05T03:07:56.930Z,96.70
2023-05-05T03:10:30.970Z,96.80
2023-05-05T03:13:01.585Z,96.90
2023-05-05T03:15:32.559Z,96.60
2023-05-05T03:18:01.368Z,96.80
2023-05-05T03:20:31.163Z,96.50
2023-05-05T03:22:59.430Z,96.70
2023-05-05T03:25:42.808Z,96.90
2023-05-05T03:28:10.783Z,96.60
2023-05-05T03:30:38.935Z,96.90
2023-05-05T03:33:07.464Z,96.80
2023-05-05T03:35:36.875Z,97.00
2023-05-05T03:38:04.861Z,96.90
2023-05-05T03:40:43.753Z,96.80
2023-05-05T03:43:12.673Z,96.80
2023-05-05T03:45:40.698Z,96.80
2023-05-05T03:48:09.690Z,96.80
2023-05-05T03:50:39.330Z,96.50
2023-05-05T03:53:07.319Z,96.70
2023-05-05T03:55:35.251Z,96.60
2023-05-05T03:58:03.844Z,96.30
2023-05-05T04:00:32.102Z,96.20
2023-05-05T04:03:00.233Z,96.60
2023-05-05T04:05:28.301Z,96.60
2023-05-05T04:07:58.317Z,96.80
2023-05-05T04:10:26.391Z,97.00
2023-05-05T04:12:54.608Z,97.20
2023-05-05T04:15:22.784Z,97.20
2023-05-05T04:17:50.803Z,97.50
2023-05-05T04:20:19.025Z,97.60
2023-05-05T04:22:46.976Z,97.10
2023-05-05T04:25:16.607Z,96.90
2023-05-05T04:27:44.901Z,97.10
2023-05-05T04:30:13.406Z,96.90
2023-05-05T04:32:41.469Z,97.20
2023-05-05T04:35:10.014Z,97.50
2023-05-05T04:37:37.953Z,97.40
2023-05-05T04:40:08.103Z,97.40
2023-05-05T04:42:37.662Z,97.50
2023-05-05T04:45:06.692Z,97.60
2023-05-05T04:47:38.415Z,97.70
2023-05-05T04:50:08.056Z,97.40
2023-05-05T04:52:36.312Z,97.70
2023-05-05T04:55:04.370Z,97.30
2023-05-05T04:57:32.362Z,97.20
2023-05-05T05:00:04.388Z,97.70
2023-05-05T05:02:32.420Z,97.40
2023-05-05T05:05:00.515Z,97.50
2023-05-05T05:07:28.647Z,97.60
2023-05-05T05:09:56.667Z,97.50
2023-05-05T05:12:24.656Z,97.50
2023-05-05T05:14:52.813Z,97.70
2023-05-05T05:17:23.761Z,97.40
2023-05-05T05:19:51.708Z,98.00
2023-05-05T05:22:19.651Z,98.10
2023-05-05T05:24:47.663Z,97.80
2023-05-05T05:27:15.782Z,97.80
2023-05-05T05:29:44.354Z,97.40
2023-05-05T05:32:12.316Z,97.30
2023-05-05T05:34:41.950Z,96.90
2023-05-05T05:37:09.895Z,96.70
2023-05-05T05:39:37.846Z,96.60
2023-05-05T05:42:05.958Z,96.90
2023-05-05T05:44:33.905Z,96.20
2023-05-05T05:47:01.849Z,96.80
2023-05-05T05:49:29.862Z,96.50
2023-05-05T05:51:59.130Z,96.70
2023-05-05T05:54:27.418Z,96.40
2023-05-05T05:56:55.437Z,95.50
2023-05-05T05:59:23.405Z,96.00
2023-05-05T06:01:51.551Z,96.80
2023-05-05T06:04:19.507Z,96.10
2023-05-05T06:06:47.457Z,96.70
2023-05-05T06:09:16.803Z,95.20
2023-05-05T06:11:44.783Z,95.70
2023-05-05T06:14:12.748Z,95.90
2023-05-05T06:16:40.716Z,95.20
2023-05-05T06:19:10.585Z,96.70
2023-05-05T06:21:38.519Z,96.20
2023-05-05T06:24:06.860Z,96.00
2023-05-05T06:26:36.348Z,94.30
2023-05-05T06:29:04.539Z,94.80
2023-05-05T06:31:32.570Z,93.20
2023-05-05T06:34:00.631Z,90.80
2023-05-05T06:36:29.171Z,91.20
2023-05-05T06:38:57.139Z,91.20
2023-05-05T06:41:25.329Z,89.80
2023-05-05T06:43:54.619Z,88.50
2023-05-05T06:46:22.725Z,86.60
2023-05-05T06:48:50.811Z,85.00
2023-05-05T06:51:18.815Z,84.10
2023-05-05T06:53:46.805Z,82.60
2023-05-05T06:56:14.740Z,80.20
2023-05-05T06:58:42.745Z,77.90
2023-05-05T07:01:12.099Z,78.80
2023-05-05T07:03:40.339Z,78.60
2023-05-05T07:06:08.328Z,78.30
2023-05-05T07:08:36.260Z,78.50
2023-05-05T07:11:04.237Z,77.60
2023-05-05T07:13:32.193Z,77.90
2023-05-05T07:16:00.752Z,75.30
2023-05-05T07:18:30.212Z,74.50
2023-05-05T07:20:58.133Z,74.80
2023-05-05T07:23:26.252Z,76.60
2023-05-05T07:25:55.320Z,76.20
2023-05-05T07:28:23.275Z,75.90
2023-05-05T07:30:51.959Z,74.20
2023-05-05T07:33:19.949Z,76.60
2023-05-05T07:35:49.239Z,75.10
2023-05-05T07:38:17.168Z,75.40
2023-05-05T07:40:45.133Z,75.10
2023-05-05T07:43:13.161Z,75.30
2023-05-05T07:45:41.641Z,75.20
2023-05-05T07:48:09.691Z,74.20
2023-05-05T07:50:37.713Z,74.70
2023-05-05T07:53:14.446Z,74.20
2023-05-05T07:55:43.207Z,73.50
2023-05-05T07:58:11.816Z,75.10
2023-05-05T08:00:40.042Z,75.20
2023-05-05T08:03:11.300Z,75.60
2023-05-05T08:05:40.561Z,76.10
2023-05-05T08:08:10.042Z,76.40
2023-05-05T08:10:38.029Z,78.70
2023-05-05T08:13:06.030Z,78.00
2023-05-05T08:15:34.011Z,77.00
2023-05-05T08:18:01.972Z,76.60
2023-05-05T08:20:30.632Z,75.50
2023-05-05T08:22:58.600Z,78.20
2023-05-05T08:25:27.963Z,76.00
2023-05-05T08:27:56.062Z,77.00
2023-05-05T08:30:24.165Z,75.50
2023-05-05T08:32:52.242Z,74.90
2023-05-05T08:35:20.417Z,76.70
2023-05-05T08:37:48.335Z,74.30
2023-05-05T08:40:16.361Z,74.80
2023-05-05T08:42:46.368Z,73.70
2023-05-05T08:45:14.378Z,74.70
2023-05-05T08:47:43.392Z,74.00
2023-05-05T08:50:12.596Z,73.50
2023-05-05T08:52:43.787Z,74.90
2023-05-05T08:55:16.384Z,76.10
2023-05-05T08:57:51.913Z,75.60
2023-05-05T09:00:21.105Z,76.40
2023-05-05T09:02:49.731Z,76.30
2023-05-05T09:05:18.015Z,73.40
2023-05-05T09:07:47.105Z,76.00
2023-05-05T09:10:15.092Z,75.50
2023-05-05T09:12:43.302Z,75.80
2023-05-05T09:15:14.922Z,73.40
2023-05-05T09:17:43.531Z,73.70
2023-05-05T09:20:13.006Z,71.60
2023-05-05T09:22:42.085Z,71.60
2023-05-05T09:25:11.944Z,73.20
2023-05-05T09:27:41.938Z,75.90
2023-05-05T09:30:13.136Z,73.10
2023-05-05T09:32:49.218Z,75.00
2023-05-05T09:35:18.701Z,75.30
2023-05-05T09:37:46.967Z,74.50
2023-05-05T09:40:16.662Z,76.10
2023-05-05T09:42:45.333Z,75.00
2023-05-05T09:45:28.178Z,70.50
2023-05-05T09:47:59.552Z,70.90
2023-05-05T09:50:30.456Z,71.90
2023-05-05T09:52:59.912Z,73.50
2023-05-05T09:55:28.155Z,69.50
2023-05-05T09:57:56.319Z,70.20
2023-05-05T10:00:40.099Z,68.80
2023-05-05T10:03:08.258Z,72.60
2023-05-05T10:05:48.167Z,72.00
2023-05-05T10:08:16.273Z,73.00
2023-05-05T10:10:53.487Z,71.20
2023-05-05T10:13:23.153Z,70.80
2023-05-05T10:15:54.125Z,71.90
2023-05-05T10:18:25.175Z,70.40
2023-05-05T10:20:59.471Z,72.40
2023-05-05T10:23:34.843Z,69.50
2023-05-05T10:26:06.694Z,69.20
2023-05-05T10:28:35.873Z,70.70
2023-05-05T10:31:24.599Z,69.70
2023-05-05T10:33:56.117Z,69.30
2023-05-05T10:36:25.675Z,67.80
2023-05-05T10:38:57.785Z,69.80
2023-05-05T10:41:25.930Z,68.90
2023-05-05T10:43:56.472Z,68.60
2023-05-05T10:46:27.517Z,65.00
2023-05-05T10:49:03.935Z,64.90
2023-05-05T10:51:41.984Z,65.60
2023-05-05T10:54:14.907Z,65.30
2023-05-05T10:56:43.932Z,64.40
2023-05-05T10:59:43.914Z,66.70
2023-05-05T11:02:26.958Z,65.50
2023-05-05T11:05:09.339Z,64.40
2023-05-05T11:07:37.495Z,63.10
2023-05-05T11:10:06.874Z,64.10
2023-05-05T11:13:13.619Z,65.60
2023-05-05T11:15:41.892Z,64.30
2023-05-05T11:18:30.605Z,65.00
2023-05-05T11:21:15.608Z,65.80
2023-05-05T11:23:48.812Z,63.60
2023-05-05T11:26:18.404Z,63.10
2023-05-05T11:29:01.280Z,65.60
2023-05-05T11:31:30.505Z,63.80
2023-05-05T11:34:30.024Z,64.70
2023-05-05T11:37:01.150Z,63.50
2023-05-05T11:39:44.561Z,65.70
2023-05-05T11:42:25.908Z,64.60
2023-05-05T11:44:55.057Z,63.30
2023-05-05T11:47:30.525Z,65.60
2023-05-05T11:50:16.673Z,64.50
2023-05-05T11:52:44.643Z,65.80
2023-05-05T11:55:13.030Z,62.50
2023-05-05T11:57:41.101Z,64.70
2023-05-05T12:00:10.272Z,65.10
2023-05-05T12:02:38.579Z,64.80
2023-05-05T12:05:09.025Z,64.70
2023-05-05T12:07:37.021Z,64.50
2023-05-05T12:10:05.529Z,64.80
2023-05-05T12:12:38.473Z,63.40
2023-05-05T12:15:08.059Z,63.80
2023-05-05T12:17:45.781Z,62.90
2023-05-05T12:20:15.374Z,63.20
2023-05-05T12:22:44.688Z,63.70
2023-05-05T12:25:12.649Z,62.60
2023-05-05T12:27:41.240Z,63.90
2023-05-05T12:30:14.802Z,62.90
2023-05-05T12:32:43.482Z,63.90
2023-05-05T12:35:12.751Z,63.60
2023-05-05T12:37:43.143Z,61.90
2023-05-05T12:40:45.169Z,62.70
2023-05-05T12:43:25.885Z,64.10
2023-05-05T12:46:04.711Z,63.20
2023-05-05T12:48:32.825Z,63.40
2023-05-05T12:51:17.674Z,63.00
2023-05-05T12:53:47.707Z,63.20
2023-05-05T12:56:35.514Z,63.00
2023-05-05T12:59:04.550Z,62.50
2023-05-05T13:01:32.964Z,62.60
2023-05-05T13:04:09.125Z,62.70
2023-05-05T13:06:37.706Z,61.70
2023-05-05T13:09:07.827Z,62.10
2023-05-05T13:11:37.165Z,62.40
2023-05-05T13:14:05.646Z,62.70
2023-05-05T13:16:33.868Z,62.10
2023-05-05T13:19:01.821Z,63.40
2023-05-05T13:21:29.847Z,63.30
2023-05-05T13:24:08.275Z,63.10
2023-05-05T13:26:41.701Z,63.10
2023-05-05T13:29:09.662Z,64.40
2023-05-05T13:31:37.697Z,63.30
2023-05-05T13:34:05.654Z,64.80
2023-05-05T13:36:34.564Z,65.10
2023-05-05T13:39:02.600Z,63.50
2023-05-05T13:41:30.736Z,64.80
2023-05-05T13:44:00.176Z,62.80
2023-05-05T13:46:28.141Z,64.00
2023-05-05T13:48:56.856Z,65.50
2023-05-05T13:51:25.382Z,64.30
2023-05-05T13:53:53.291Z,63.90
2023-05-05T13:56:23.380Z,64.40
2023-05-05T13:58:51.869Z,64.00
2023-05-05T14:01:21.386Z,63.90
2023-05-05T14:03:49.456Z,64.10
2023-05-05T14:06:17.409Z,62.90
2023-05-05T14:08:46.098Z,63.60
2023-05-05T14:11:17.290Z,63.70
2023-05-05T14:13:46.649Z,63.60
2023-05-05T14:16:14.923Z,63.90
2023-05-05T14:18:44.324Z,63.30
2023-05-05T14:21:12.287Z,63.60
2023-05-05T14:23:40.298Z,63.20
2023-05-05T14:26:08.855Z,63.60
2023-05-05T14:28:36.941Z,62.90
2023-05-05T14:31:05.092Z,63.80
2023-05-05T14:33:33.085Z,64.00
2023-05-05T14:36:02.402Z,65.00
2023-05-05T14:38:30.397Z,64.50
2023-05-05T14:40:58.366Z,65.30
2023-05-05T14:43:26.291Z,65.00
2023-05-05T14:45:54.326Z,64.70
2023-05-05T14:48:22.780Z,65.50
2023-05-05T14:50:50.836Z,65.30
2023-05-05T14:53:20.181Z,64.90
2023-05-05T14:55:48.213Z,65.40
2023-05-05T14:58:17.076Z,65.60
2023-05-05T15:00:45.118Z,65.00
2023-05-05T15:03:13.381Z,64.90
2023-05-05T15:05:42.500Z,65.00
2023-05-05T15:08:10.501Z,65.90
2023-05-05T15:10:39.801Z,67.20
2023-05-05T15:13:07.897Z,66.70
2023-05-05T15:15:35.989Z,67.10
2023-05-05T15:18:04.043Z,66.50
2023-05-05T15:20:32.446Z,67.70
2023-05-05T15:23:01.323Z,67.00
2023-05-05T15:25:29.430Z,67.50
2023-05-05T15:27:58.876Z,68.60
2023-05-05T15:30:26.885Z,68.10
2023-05-05T15:32:54.941Z,68.30
2023-05-05T15:35:25.365Z,68.80
2023-05-05T15:37:55.066Z,68.00
2023-05-05T15:40:23.316Z,68.50
2023-05-05T15:42:51.372Z,68.30
2023-05-05T15:45:20.737Z,69.00
2023-05-05T15:47:50.321Z,69.30
2023-05-05T15:50:18.308Z,69.40
2023-05-05T15:52:49.355Z,68.90
2023-05-05T15:55:17.925Z,69.50
2023-05-05T15:57:45.922Z,69.90
2023-05-05T16:00:15.185Z,70.00
2023-05-05T16:02:45.086Z,70.00
2023-05-05T16:05:13.281Z,69.40
2023-05-05T16:07:41.398Z,70.50
2023-05-05T16:10:10.906Z,70.70
2023-05-05T16:12:38.888Z,70.00
2023-05-05T16:15:08.261Z,70.20
2023-05-05T16:17:36.395Z,70.50
2023-05-05T16:20:07.083Z,70.40
2023-05-05T16:22:35.063Z,71.10
2023-05-05T16:25:03.029Z,70.80
2023-05-05T16:27:31.100Z,71.20
2023-05-05T16:29:59.924Z,71.60
2023-05-05T16:32:28.013Z,71.10
2023-05-05T16:34:56.133Z,70.40
2023-05-05T16:37:25.555Z,70.50
2023-05-05T16:39:53.517Z,70.50
2023-05-05T16:42:21.527Z,71.10
2023-05-05T16:44:49.978Z,70.20
2023-05-05T16:47:17.948Z,71.10
2023-05-05T16:49:45.881Z,71.10
2023-05-05T16:52:13.820Z,71.60
2023-05-05T16:54:43.481Z,71.00
2023-05-05T16:57:11.517Z,71.30
2023-05-05T16:59:41.600Z,71.20
2023-05-05T17:02:09.543Z,71.70
2023-05-05T17:04:37.574Z,72.20
2023-05-05T17:07:05.751Z,72.20
2023-05-05T17:09:33.831Z,72.40
2023-05-05T17:12:04.080Z,73.00
2023-05-05T17:14:33.465Z,73.30
2023-05-05T17:17:01.432Z,73.50
2023-05-05T17:19:29.668Z,73.60
2023-05-05T17:21:57.905Z,74.00
2023-05-05T17:24:26.025Z,73.90
2023-05-05T17:26:54.111Z,73.60
2023-05-05T17:29:23.484Z,73.70
2023-05-05T17:31:51.677Z,73.80
2023-05-05T17:34:19.753Z,74.10
2023-05-05T17:36:47.718Z,73.30
2023-05-05T17:39:15.814Z,73.30
2023-05-05T17:41:44.159Z,73.60
2023-05-05T17:44:12.114Z,73.50
2023-05-05T17:46:41.506Z,73.40
2023-05-05T17:49:09.593Z,73.90
2023-05-05T17:51:37.654Z,73.40
2023-05-05T17:54:05.954Z,73.60
2023-05-05T17:56:35.887Z,73.60
2023-05-05T17:59:04.274Z,73.40
2023-05-05T18:01:32.301Z,73.60
2023-05-05T18:04:01.773Z,73.60
2023-05-05T18:06:29.903Z,73.80
2023-05-05T18:08:58.199Z,74.00
2023-05-05T18:11:28.772Z,74.00
2023-05-05T18:13:57.043Z,74.20
2023-05-05T18:16:25.676Z,74.40
2023-05-05T18:18:53.796Z,74.50
2023-05-05T18:21:23.391Z,74.50
2023-05-05T18:23:51.455Z,74.40
2023-05-05T18:26:19.671Z,74.20
2023-05-05T18:28:47.686Z,74.80
2023-05-05T18:31:15.693Z,74.80
2023-05-05T18:33:46.782Z,74.90
2023-05-05T18:36:16.352Z,75.20
2023-05-05T18:38:45.763Z,74.70
2023-05-05T18:41:14.107Z,74.90
2023-05-05T18:43:42.288Z,74.90
2023-05-05T18:46:12.746Z,74.70
2023-05-05T18:48:40.813Z,74.50
2023-05-05T18:51:08.913Z,74.80
2023-05-05T18:53:36.887Z,75.10
2023-05-05T18:56:06.488Z,74.40
2023-05-05T18:58:34.426Z,74.30
2023-05-05T19:01:02.423Z,74.20
2023-05-05T19:03:30.380Z,74.50
2023-05-05T19:05:58.353Z,74.70
2023-05-05T19:08:26.846Z,75.20
2023-05-05T19:10:54.986Z,75.30
2023-05-05T19:13:24.556Z,75.20
2023-05-05T19:15:57.212Z,75.40
2023-05-05T19:18:25.266Z,75.60
2023-05-05T19:20:53.188Z,77.90
2023-05-05T19:23:21.173Z,77.00
2023-05-05T19:25:51.829Z,78.70
2023-05-05T19:28:19.928Z,78.50
2023-05-05T19:30:49.266Z,79.00
2023-05-05T19:33:17.396Z,80.10
2023-05-05T19:35:45.472Z,80.30
2023-05-05T19:38:13.480Z,80.90
2023-05-05T19:40:42.005Z,81.90
2023-05-05T19:43:10.053Z,83.00
2023-05-05T19:45:38.069Z,82.90
2023-05-05T19:48:07.765Z,83.50
2023-05-05T19:50:36.164Z,82.40
2023-05-05T19:53:04.808Z,83.60
2023-05-05T19:55:33.244Z,83.20
2023-05-05T19:58:01.202Z,84.10
2023-05-05T20:00:29.115Z,83.30
2023-05-05T20:02:57.125Z,83.70
2023-05-05T20:05:27.006Z,83.60
2023-05-05T20:07:54.970Z,83.70
2023-05-05T20:10:23.920Z,84.80
2023-05-05T20:12:51.865Z,85.30
2023-05-05T20:15:21.686Z,85.20
2023-05-05T20:17:49.819Z,84.40
2023-05-05T20:20:19.998Z,84.50
2023-05-05T20:22:50.435Z,84.90
2023-05-05T20:25:18.464Z,85.20
2023-05-05T20:27:46.500Z,84.70
2023-05-05T20:30:14.690Z,85.10
2023-05-05T20:32:42.670Z,85.40
2023-05-05T20:35:12.736Z,86.00
2023-05-05T20:37:40.774Z,86.90
2023-05-05T20:40:11.947Z,86.80
2023-05-05T20:42:40.087Z,87.00
2023-05-05T20:45:10.527Z,87.20
2023-05-05T20:47:38.536Z,87.20
2023-05-05T20:50:07.922Z,87.30
2023-05-05T20:52:36.248Z,87.20
2023-05-05T20:55:04.415Z,87.20
2023-05-05T20:57:33.876Z,87.70
2023-05-05T21:00:01.856Z,87.60
2023-05-05T21:02:29.935Z,87.40
2023-05-05T21:05:02.388Z,87.30
2023-05-05T21:07:31.174Z,87.30
2023-05-05T21:09:59.197Z,87.20
2023-05-05T21:12:27.192Z,87.80
2023-05-05T21:14:58.574Z,87.40
2023-05-05T21:17:27.633Z,87.60
2023-05-05T21:19:56.945Z,87.60
2023-05-05T21:22:25.116Z,87.60
2023-05-05T21:24:53.152Z,87.60
2023-05-05T21:27:22.121Z,87.80
2023-05-05T21:29:51.951Z,88.00
2023-05-05T21:32:21.354Z,88.50
2023-05-05T21:34:49.332Z,88.40
2023-05-05T21:37:17.305Z,88.20
2023-05-05T21:39:45.314Z,88.10
2023-05-05T21:42:13.310Z,88.00
2023-05-05T21:44:41.267Z,87.90
2023-05-05T21:47:10.665Z,88.00
2023-05-05T21:49:40.045Z,88.60
2023-05-05T21:52:08.026Z,87.90
2023-05-05T21:54:36.138Z,87.70
2023-05-05T21:57:04.149Z,87.80
2023-05-05T21:59:32.072Z,88.00
2023-05-05T22:02:00.143Z,87.80
2023-05-05T22:04:28.158Z,88.40
2023-05-05T22:06:57.478Z,88.80
2023-05-05T22:09:25.494Z,90.20
2023-05-05T22:11:53.512Z,90.80
2023-05-05T22:14:21.488Z,91.10
2023-05-05T22:16:49.476Z,91.60
2023-05-05T22:19:17.773Z,91.40
2023-05-05T22:21:45.737Z,91.30
2023-05-05T22:24:15.118Z,91.40
2023-05-05T22:26:43.248Z,91.30
2023-05-05T22:29:11.982Z,91.40
2023-05-05T22:31:40.205Z,91.40
2023-05-05T22:34:08.434Z,91.40
2023-05-05T22:36:36.435Z,91.00
2023-05-05T22:39:04.427Z,91.20
2023-05-05T22:41:34.027Z,91.20
2023-05-05T22:44:01.945Z,91.50
2023-05-05T22:46:30.102Z,91.40
2023-05-05T22:48:58.099Z,91.30
2023-05-05T22:51:26.057Z,91.20
2023-05-05T22:53:54.071Z,91.30
2023-05-05T22:56:22.082Z,91.30
2023-05-05T22:58:51.543Z,91.70
2023-05-05T23:01:19.538Z,91.40
2023-05-05T23:03:47.527Z,91.50
2023-05-05T23:06:15.562Z,91.50
2023-05-05T23:08:43.525Z,91.40
2023-05-05T23:11:13.572Z,91.30
2023-05-05T23:13:41.657Z,91.30
2023-05-05T23:16:11.038Z,91.50
2023-05-05T23:18:39.457Z,91.60
2023-05-05T23:21:07.583Z,91.80
2023-05-05T23:23:35.572Z,91.80
2023-05-05T23:26:03.531Z,91.90
2023-05-05T23:28:31.496Z,91.80
2023-05-05T23:30:59.461Z,91.90
2023-05-05T23:33:28.867Z,91.70
2023-05-05T23:35:56.878Z,91.80
2023-05-05T23:38:24.914Z,92.30
2023-05-05T23:40:53.778Z,92.20
2023-05-05T23:43:21.717Z,92.00
2023-05-05T23:45:49.770Z,92.10
2023-05-05T23:48:17.713Z,92.00
2023-05-05T23:50:47.095Z,91.80
2023-05-05T23:53:16.201Z,91.80
2023-05-05T23:55:44.222Z,91.90
2023-05-05T23:58:12.288Z,92.10
